Time;durP1;ratioP1;P1;durP2;ratioP2;P2;SDS_P1;SDS_P2;PMS_P1;PMS_P2;Temp;Humidity;BMP_temperature;BMP_pressure;BME280_temperature;BME280_humidity;BME280_pressure;Samples;Min_cycle;Max_cycle;Signal;HPM_P1;HPM_P2
2022/01/28 00:00:29;;;;;;;1.58;0.45;;;20.00;45.20;;;;;;5030901;28;20617;-79
2022/01/28 00:03:00;;;;;;;1.52;0.25;;;20.00;45.30;;;;;;5031173;28;20064;-79
2022/01/28 00:05:26;;;;;;;1.27;0.30;;;20.00;45.30;;;;;;5030479;28;20053;-80
2022/01/28 00:07:52;;;;;;;1.75;0.35;;;19.90;45.20;;;;;;5031182;28;20048;-79
2022/01/28 00:10:19;;;;;;;1.70;0.30;;;20.00;45.30;;;;;;5031826;28;20123;-79
2022/01/28 00:18:53;;;;;;;0.68;0.10;;;19.90;45.30;;;;;;5051637;28;20059;-79
2022/01/28 00:37:47;;;;;;;1.15;0.30;;;19.80;45.30;;;;;;5048664;28;20408;-80
2022/01/28 00:40:09;;;;;;;1.45;0.30;;;19.80;45.30;;;;;;5034402;28;20095;-80
2022/01/28 00:42:35;;;;;;;1.73;0.30;;;19.80;45.30;;;;;;5050953;28;20732;-80
2022/01/28 00:45:01;;;;;;;1.77;0.40;;;19.80;45.30;;;;;;5039423;28;20543;-79
2022/01/28 00:47:27;;;;;;;2.38;0.52;;;19.80;45.30;;;;;;5035496;28;20055;-79
2022/01/28 00:49:52;;;;;;;1.92;0.40;;;19.80;45.30;;;;;;5037422;28;20056;-80
2022/01/28 00:52:18;;;;;;;2.42;0.52;;;19.80;45.30;;;;;;5036380;28;20046;-80
2022/01/28 00:54:43;;;;;;;0.93;0.25;;;19.80;45.30;;;;;;5033573;28;20052;-80
2022/01/28 00:57:09;;;;;;;2.75;0.52;;;19.70;45.30;;;;;;5034426;28;20069;-79
2022/01/28 00:59:34;;;;;;;2.60;0.50;;;19.70;45.40;;;;;;5034237;28;20056;-80
2022/01/28 01:02:00;;;;;;;1.33;0.20;;;19.70;45.40;;;;;;5033305;28;20057;-80
2022/01/28 01:04:26;;;;;;;2.90;0.40;;;19.70;45.40;;;;;;5034302;28;20049;-80
2022/01/28 01:06:51;;;;;;;0.60;0.20;;;19.70;45.30;;;;;;5034107;28;20052;-80
2022/01/28 01:09:17;;;;;;;1.33;0.22;;;19.70;45.40;;;;;;4993318;28;20065;-80
2022/01/28 01:11:42;;;;;;;2.17;0.40;;;19.70;45.40;;;;;;5008770;28;20041;-80
2022/01/28 01:14:08;;;;;;;2.03;0.30;;;19.70;45.40;;;;;;4994446;28;20042;-79
2022/01/28 01:16:46;;;;;;;1.05;0.30;;;19.70;45.40;;;;;;4994042;28;20100;-80
2022/01/28 01:19:18;;;;;;;1.52;0.30;;;19.60;45.40;;;;;;4994581;28;20046;-80
2022/01/28 01:21:44;;;;;;;1.50;0.20;;;19.60;45.40;;;;;;4993125;28;20132;-80
2022/01/28 01:24:18;;;;;;;1.02;0.25;;;19.60;45.40;;;;;;4994081;28;20629;-80
2022/01/28 01:26:44;;;;;;;1.38;0.20;;;19.60;45.50;;;;;;5002643;28;20062;-80
2022/01/28 01:29:12;;;;;;;0.82;0.30;;;19.60;45.40;;;;;;5013533;28;20060;-80
2022/01/28 01:31:41;;;;;;;1.75;0.40;;;19.60;45.40;;;;;;5000769;28;20073;-81
2022/01/28 01:34:19;;;;;;;1.38;0.35;;;19.60;45.50;;;;;;4994078;28;20060;-81
2022/01/28 01:36:44;;;;;;;2.38;0.38;;;19.60;45.50;;;;;;5011534;28;20152;-79
2022/01/28 01:39:11;;;;;;;2.10;0.38;;;19.60;45.50;;;;;;4993638;28;20081;-79
2022/01/28 01:41:53;;;;;;;2.85;0.50;;;19.60;45.50;;;;;;5000655;28;20211;-79
2022/01/28 01:45:13;;;;;;;1.08;0.25;;;19.60;45.50;;;;;;5010512;28;20053;-79
2022/01/28 01:52:54;;;;;;;1.73;0.30;;;19.50;45.40;;;;;;5012819;28;20054;-79
2022/01/28 01:55:20;;;;;;;1.08;0.20;;;19.50;45.40;;;;;;5013371;28;20374;-79
2022/01/28 01:57:45;;;;;;;1.52;0.20;;;19.50;45.50;;;;;;5013479;28;20056;-79
2022/01/28 02:00:11;;;;;;;1.15;0.30;;;19.50;45.50;;;;;;5012919;28;20073;-79
2022/01/28 02:02:37;;;;;;;2.13;0.22;;;19.50;45.50;;;;;;5046134;28;20046;-79
2022/01/28 02:05:03;;;;;;;1.05;0.20;;;19.50;45.50;;;;;;5012901;28;20077;-79
2022/01/28 02:07:29;;;;;;;1.90;0.40;;;19.50;45.50;;;;;;5012687;28;20080;-79
2022/01/28 02:09:55;;;;;;;1.75;0.30;;;19.40;45.50;;;;;;4996967;28;20493;-79
2022/01/28 02:12:20;;;;;;;2.05;0.38;;;19.40;45.50;;;;;;5012338;28;20045;-79
2022/01/28 02:14:46;;;;;;;1.02;0.20;;;19.40;45.50;;;;;;5013081;28;20056;-79
2022/01/28 02:17:12;;;;;;;0.98;0.25;;;19.40;45.50;;;;;;5009080;28;20092;-79
2022/01/28 02:19:39;;;;;;;2.20;0.32;;;19.40;45.50;;;;;;5012482;28;20049;-79
2022/01/28 02:22:04;;;;;;;1.10;0.30;;;19.40;45.60;;;;;;5013057;28;20057;-79
2022/01/28 02:24:44;;;;;;;1.98;0.40;;;19.40;45.60;;;;;;5013222;28;20057;-79
2022/01/28 02:27:13;;;;;;;2.10;0.38;;;19.40;45.60;;;;;;5012698;28;20060;-79
2022/01/28 02:29:40;;;;;;;1.98;0.40;;;19.40;45.60;;;;;;5012803;28;20095;-79
2022/01/28 02:32:07;;;;;;;1.55;0.30;;;19.40;45.60;;;;;;5012409;28;20507;-79
2022/01/28 02:34:35;;;;;;;1.38;0.30;;;19.40;45.60;;;;;;5012086;28;20049;-79
2022/01/28 02:37:01;;;;;;;1.08;0.20;;;19.40;45.60;;;;;;5012652;28;20053;-79
2022/01/28 02:39:26;;;;;;;2.03;0.30;;;19.40;45.60;;;;;;5012144;28;20060;-79
2022/01/28 02:41:59;;;;;;;1.20;0.30;;;19.40;45.60;;;;;;5011764;28;20045;-79
2022/01/28 02:44:43;;;;;;;2.05;0.32;;;19.40;45.70;;;;;;5012506;28;20050;-79
2022/01/28 02:47:13;;;;;;;1.20;0.30;;;19.40;45.70;;;;;;5011954;28;20080;-79
2022/01/28 02:49:39;;;;;;;1.67;0.30;;;19.70;45.80;;;;;;5012498;28;20064;-79
2022/01/28 02:52:05;;;;;;;0.57;0.20;;;19.40;45.70;;;;;;5012249;28;20049;-79
2022/01/28 02:54:33;;;;;;;0.90;0.15;;;19.40;45.70;;;;;;5011868;28;20049;-79
2022/01/28 02:57:04;;;;;;;1.95;0.32;;;19.30;45.60;;;;;;5012327;28;20045;-79
2022/01/28 02:59:29;;;;;;;0.80;0.20;;;19.30;45.60;;;;;;5030032;28;20049;-79
2022/01/28 03:01:55;;;;;;;1.92;0.30;;;19.30;45.60;;;;;;5011428;28;20068;-79
2022/01/28 03:06:55;;;;;;;1.35;0.20;;;19.40;45.70;;;;;;5011781;28;20061;-79
2022/01/28 03:09:21;;;;;;;1.15;0.25;;;19.30;45.60;;;;;;5011497;28;20136;-79
2022/01/28 03:11:59;;;;;;;1.77;0.38;;;19.30;45.60;;;;;;5012159;28;20081;-79
2022/01/28 03:14:47;;;;;;;1.08;0.40;;;19.30;45.60;;;;;;5029473;28;20119;-79
2022/01/28 03:17:29;;;;;;;1.15;0.32;;;19.30;45.60;;;;;;5011534;28;20401;-79
2022/01/28 03:20:05;;;;;;;2.10;0.38;;;19.30;45.60;;;;;;5012095;28;20053;-79
2022/01/28 03:22:32;;;;;;;1.35;0.25;;;19.30;45.70;;;;;;5013571;28;20057;-79
2022/01/28 03:24:59;;;;;;;1.60;0.40;;;19.30;45.70;;;;;;5009820;28;20144;-79
2022/01/28 03:27:47;;;;;;;1.40;0.25;;;19.30;45.70;;;;;;5008557;28;20163;-79
2022/01/28 03:30:12;;;;;;;1.02;0.30;;;19.30;46.30;;;;;;5010932;28;20509;-79
2022/01/28 03:32:38;;;;;;;2.15;0.50;;;19.30;45.70;;;;;;5011628;28;20080;-79
2022/01/28 03:35:05;;;;;;;1.48;0.22;;;19.30;45.70;;;;;;5011580;28;20060;-79
2022/01/28 03:37:30;;;;;;;2.00;0.40;;;19.30;45.70;;;;;;5007595;28;20050;-79
2022/01/28 03:39:56;;;;;;;2.30;0.40;;;19.30;45.70;;;;;;5010324;28;20085;-79
2022/01/28 03:42:22;;;;;;;1.55;0.30;;;19.30;45.70;;;;;;5024271;28;20086;-79
2022/01/28 03:44:47;;;;;;;1.35;0.32;;;19.30;46.40;;;;;;5030521;28;20106;-79
2022/01/28 03:47:13;;;;;;;2.22;0.38;;;19.30;45.70;;;;;;5031069;28;20519;-79
2022/01/28 03:49:38;;;;;;;2.97;0.40;;;19.20;45.60;;;;;;5031129;28;20430;-79
2022/01/28 03:52:04;;;;;;;1.30;0.20;;;19.30;45.70;;;;;;5030605;28;20049;-79
2022/01/28 03:54:30;;;;;;;1.50;0.28;;;19.30;45.70;;;;;;5047824;28;20130;-79
2022/01/28 03:56:55;;;;;;;1.60;0.20;;;19.20;45.60;;;;;;5030782;28;20068;-79
2022/01/28 03:59:21;;;;;;;1.60;0.30;;;19.30;45.70;;;;;;5030660;28;20041;-79
2022/01/28 04:01:48;;;;;;;1.40;0.35;;;19.20;45.70;;;;;;5031132;28;20048;-79
2022/01/28 04:05:01;;;;;;;2.53;0.35;;;19.20;45.70;;;;;;5030913;28;20037;-79
2022/01/28 04:12:36;;;;;;;1.60;0.35;;;19.30;45.80;;;;;;5030157;28;20708;-79
2022/01/28 04:15:18;;;;;;;1.02;0.20;;;19.30;45.80;;;;;;5030779;28;20091;-79
2022/01/28 04:17:44;;;;;;;0.98;0.30;;;19.30;45.80;;;;;;5030780;28;20085;-79
2022/01/28 04:20:10;;;;;;;1.35;0.30;;;19.30;45.90;;;;;;5030607;28;20124;-79
2022/01/28 04:22:35;;;;;;;1.88;0.32;;;19.30;45.90;;;;;;5031265;28;20094;-79
2022/01/28 04:25:01;;;;;;;2.05;0.20;;;19.30;45.90;;;;;;5030656;28;20052;-79
2022/01/28 04:27:26;;;;;;;1.80;0.28;;;19.30;45.90;;;;;;5030319;28;20677;-79
2022/01/28 04:29:52;;;;;;;1.45;0.30;;;19.40;46.00;;;;;;5030994;28;20101;-79
2022/01/28 04:32:19;;;;;;;1.15;0.30;;;19.40;46.00;;;;;;5030879;28;20037;-79
2022/01/28 04:34:45;;;;;;;0.73;0.10;;;19.40;46.10;;;;;;5030501;28;20156;-79
2022/01/28 04:42:35;;;;;;;1.17;0.20;;;19.50;46.20;;;;;;5030556;28;20057;-79
2022/01/28 04:45:16;;;;;;;0.82;0.10;;;19.50;46.10;;;;;;5030553;28;20060;-79
2022/01/28 04:47:58;;;;;;;1.17;0.20;;;19.60;46.20;;;;;;5030278;28;20583;-79
2022/01/28 04:50:37;;;;;;;1.63;0.20;;;19.60;46.20;;;;;;5030961;28;20049;-80
2022/01/28 05:00:49;;;;;;;1.35;0.35;;;19.70;46.10;;;;;;5034377;28;20071;-79
2022/01/28 05:14:39;;;;;;;1.77;0.30;;;19.90;46.00;;;;;;5033473;28;20041;-79
2022/01/28 05:23:24;;;;;;;0.85;0.22;;;19.90;45.90;;;;;;5051216;28;20467;-79
2022/01/28 05:27:44;;;;;;;0.77;0.20;;;19.90;45.90;;;;;;5033253;28;20499;-79
2022/01/28 05:30:10;;;;;;;0.95;0.20;;;19.90;45.80;;;;;;5033371;28;20507;-79
2022/01/28 05:32:35;;;;;;;1.52;0.30;;;20.00;45.90;;;;;;5033927;28;20057;-79
2022/01/28 05:35:01;;;;;;;1.52;0.30;;;20.00;45.90;;;;;;5033624;28;20539;-82
2022/01/28 05:37:27;;;;;;;1.45;0.28;;;20.00;45.90;;;;;;5033233;28;20052;-82
2022/01/28 05:39:52;;;;;;;0.73;0.20;;;20.00;45.80;;;;;;5033671;28;20045;-82
2022/01/28 05:42:18;;;;;;;1.45;0.25;;;20.00;45.80;;;;;;5033210;28;20045;-82
2022/01/28 05:44:43;;;;;;;1.83;0.32;;;20.00;45.70;;;;;;5032958;28;20041;-81
2022/01/28 05:47:14;;;;;;;1.13;0.22;;;20.10;45.80;;;;;;5051668;28;20053;-81
2022/01/28 05:49:39;;;;;;;0.77;0.17;;;20.10;45.80;;;;;;5051126;28;20037;-81
2022/01/28 05:52:05;;;;;;;0.95;0.30;;;20.00;45.70;;;;;;5016117;28;20052;-81
2022/01/28 05:54:30;;;;;;;0.40;0.10;;;20.10;45.70;;;;;;5033533;28;20049;-81
2022/01/28 05:56:56;;;;;;;1.42;0.30;;;20.10;45.70;;;;;;5032752;28;20045;-81
2022/01/28 05:59:22;;;;;;;1.52;0.28;;;20.10;45.70;;;;;;5032655;28;20052;-81
2022/01/28 06:01:47;;;;;;;1.50;0.40;;;20.10;45.70;;;;;;5019336;28;20048;-81
2022/01/28 06:04:15;;;;;;;1.50;0.30;;;20.10;45.60;;;;;;5047866;28;20056;-81
2022/01/28 06:06:41;;;;;;;1.52;0.22;;;20.10;45.70;;;;;;5032992;28;20117;-81
2022/01/28 06:09:06;;;;;;;1.05;0.10;;;20.10;45.70;;;;;;5032673;28;20048;-81
2022/01/28 06:11:32;;;;;;;0.75;0.17;;;20.10;45.60;;;;;;5032104;28;20136;-82
2022/01/28 06:13:57;;;;;;;1.05;0.20;;;20.10;45.60;;;;;;5032863;28;20084;-81
2022/01/28 06:16:23;;;;;;;1.20;0.20;;;20.10;45.60;;;;;;5050768;28;20488;-81
2022/01/28 06:18:48;;;;;;;0.85;0.20;;;20.10;45.60;;;;;;5032245;28;20562;-81
2022/01/28 06:21:14;;;;;;;0.90;0.10;;;20.20;45.70;;;;;;5032822;28;20040;-81
2022/01/28 06:23:40;;;;;;;1.75;0.25;;;20.20;45.80;;;;;;5032620;28;20045;-81
2022/01/28 06:26:05;;;;;;;0.80;0.17;;;20.20;45.70;;;;;;5032052;28;20064;-81
2022/01/28 06:28:31;;;;;;;1.15;0.20;;;20.20;45.70;;;;;;5026561;28;20090;-81
2022/01/28 06:30:57;;;;;;;1.15;0.30;;;20.20;45.70;;;;;;5037492;28;20049;-81
2022/01/28 06:33:22;;;;;;;1.27;0.20;;;21.50;46.30;;;;;;5021598;28;20054;-81
2022/01/28 06:35:48;;;;;;;1.60;0.15;;;20.20;45.70;;;;;;5033894;28;20055;-81
2022/01/28 06:38:14;;;;;;;1.02;0.13;;;20.20;45.60;;;;;;5031907;28;20061;-81
2022/01/28 06:40:40;;;;;;;0.70;0.20;;;20.20;45.60;;;;;;5031938;28;20052;-79
2022/01/28 06:43:12;;;;;;;1.23;0.30;;;20.20;45.60;;;;;;5032367;28;20049;-80
2022/01/28 06:45:41;;;;;;;1.13;0.20;;;20.30;45.60;;;;;;5031909;28;20045;-80
2022/01/28 06:48:10;;;;;;;1.45;0.10;;;20.30;45.70;;;;;;5023530;28;20048;-80
2022/01/28 06:50:36;;;;;;;0.77;0.15;;;20.80;45.90;;;;;;5023086;28;20041;-80
2022/01/28 06:53:01;;;;;;;1.52;0.30;;;20.30;45.60;;;;;;5030429;28;20057;-80
2022/01/28 06:55:27;;;;;;;1.45;0.40;;;20.30;45.60;;;;;;5028395;28;20037;-81
2022/01/28 06:57:54;;;;;;;0.90;0.20;;;20.30;45.60;;;;;;5047685;28;20049;-80
2022/01/28 07:00:19;;;;;;;1.50;0.20;;;20.30;45.60;;;;;;5032028;28;20419;-80
2022/01/28 07:02:46;;;;;;;1.67;0.20;;;20.30;45.60;;;;;;5021826;28;20037;-80
2022/01/28 07:05:11;;;;;;;1.20;0.20;;;20.30;45.50;;;;;;5060752;28;20045;-80
2022/01/28 07:07:37;;;;;;;1.33;0.10;;;20.30;45.50;;;;;;5028499;28;20427;-80
2022/01/28 07:10:03;;;;;;;1.13;0.30;;;20.30;45.50;;;;;;5031378;28;20048;-80
2022/01/28 07:12:29;;;;;;;2.00;0.40;;;20.30;45.50;;;;;;5049327;28;20106;-80
2022/01/28 07:14:54;;;;;;;1.00;0.20;;;20.30;45.50;;;;;;5031217;28;20056;-80
2022/01/28 07:17:20;;;;;;;1.77;0.40;;;20.30;45.50;;;;;;5031756;28;20049;-80
2022/01/28 07:19:45;;;;;;;1.33;0.22;;;20.30;45.50;;;;;;5048393;28;20044;-80
2022/01/28 07:22:11;;;;;;;1.70;0.22;;;20.30;45.50;;;;;;5047954;28;20037;-80
2022/01/28 07:24:36;;;;;;;1.42;0.35;;;20.30;45.50;;;;;;5021006;28;20048;-80
2022/01/28 07:27:02;;;;;;;2.53;0.35;;;20.30;45.50;;;;;;5042679;28;20565;-80
2022/01/28 07:29:30;;;;;;;1.95;0.30;;;20.30;45.50;;;;;;5063229;28;20036;-78
2022/01/28 07:31:56;;;;;;;0.90;0.30;;;20.30;45.50;;;;;;5031267;28;20048;-81
2022/01/28 07:34:22;;;;;;;1.48;0.22;;;20.30;45.50;;;;;;5029410;28;20041;-81
2022/01/28 07:36:47;;;;;;;0.82;0.20;;;20.30;45.60;;;;;;5001657;28;20457;-80
2022/01/28 07:39:13;;;;;;;1.52;0.30;;;20.30;45.40;;;;;;5026550;28;20045;-80
2022/01/28 07:41:39;;;;;;;2.45;0.40;;;20.30;45.40;;;;;;5025416;28;20409;-81
2022/01/28 07:44:04;;;;;;;1.83;0.30;;;20.30;45.40;;;;;;5029497;28;20258;-80
2022/01/28 07:46:30;;;;;;;4.70;0.60;;;20.30;45.40;;;;;;5063273;28;20048;-80
2022/01/28 07:48:56;;;;;;;5.75;1.02;;;20.30;45.30;;;;;;5029731;28;20044;-80
2022/01/28 07:51:21;;;;;;;7.68;1.75;;;20.30;45.30;;;;;;5029737;28;20036;-80
2022/01/28 07:53:47;;;;;;;10.55;2.17;;;20.30;45.20;;;;;;5029909;28;20059;-82
2022/01/28 07:56:14;;;;;;;8.35;1.88;;;20.30;45.20;;;;;;5030956;28;20052;-79
2022/01/28 07:58:42;;;;;;;9.30;1.60;;;20.90;45.60;;;;;;5030707;28;20037;-78
2022/01/28 08:01:08;;;;;;;5.93;1.50;;;20.20;45.20;;;;;;5030309;28;20499;-79
2022/01/28 08:03:34;;;;;;;6.07;1.33;;;20.50;45.30;;;;;;5017657;28;20046;-78
2022/01/28 08:05:59;;;;;;;17.98;1.75;;;20.20;45.20;;;;;;5041024;28;20055;-79
2022/01/28 08:08:25;;;;;;;6.60;1.30;;;20.40;45.30;;;;;;5030784;28;20095;-80
2022/01/28 08:10:51;;;;;;;5.93;1.48;;;20.10;45.20;;;;;;5030156;28;20045;-80
2022/01/28 08:13:17;;;;;;;10.18;1.80;;;20.10;45.20;;;;;;5030821;28;20614;-79
2022/01/28 08:15:42;;;;;;;6.50;1.58;;;20.00;45.20;;;;;;5030745;28;20144;-79
2022/01/28 08:18:08;;;;;;;6.07;1.50;;;20.00;45.30;;;;;;5047137;28;20140;-79
2022/01/28 08:20:33;;;;;;;9.02;1.20;;;20.00;45.30;;;;;;5064012;28;20055;-79
2022/01/28 08:22:59;;;;;;;6.75;1.17;;;20.00;45.30;;;;;;5029782;28;20044;-78
2022/01/28 08:25:25;;;;;;;7.00;1.42;;;19.90;45.20;;;;;;5046188;28;20148;-79
2022/01/28 08:27:51;;;;;;;8.80;1.00;;;19.90;45.30;;;;;;5032940;28;20051;-79
2022/01/28 08:30:18;;;;;;;5.85;1.65;;;19.90;45.10;;;;;;5022728;28;20060;-80
2022/01/28 08:32:44;;;;;;;6.57;1.00;;;19.90;45.30;;;;;;5025426;28;20053;-79
2022/01/28 08:35:10;;;;;;;6.13;1.10;;;19.80;45.40;;;;;;5025122;28;20822;-79
2022/01/28 08:37:35;;;;;;;8.02;1.02;;;19.80;45.60;;;;;;5026238;28;20050;-80
2022/01/28 08:40:01;;;;;;;5.03;0.95;;;19.80;45.60;;;;;;5032520;28;20063;-80
2022/01/28 08:42:27;;;;;;;5.47;0.85;;;19.80;45.70;;;;;;5029385;28;20063;-79
2022/01/28 08:44:52;;;;;;;6.07;0.75;;;19.80;45.80;;;;;;5030607;28;20478;-79
2022/01/28 08:47:18;;;;;;;5.32;1.10;;;19.80;45.90;;;;;;5034436;28;20053;-80
2022/01/28 08:49:44;;;;;;;4.63;0.90;;;19.70;45.90;;;;;;5033903;28;20487;-81
2022/01/28 08:52:09;;;;;;;4.63;0.90;;;19.70;45.90;;;;;;5022510;28;20052;-82
2022/01/28 08:54:35;;;;;;;7.45;1.42;;;19.70;46.00;;;;;;5033602;28;20044;-83
2022/01/28 08:57:00;;;;;;;5.60;0.93;;;19.70;46.00;;;;;;5008033;28;20044;-82
2022/01/28 08:59:26;;;;;;;3.70;0.60;;;19.80;46.10;;;;;;5033742;28;20047;-82
2022/01/28 09:01:52;;;;;;;6.05;0.75;;;19.70;46.00;;;;;;5032348;28;20400;-82
2022/01/28 09:04:18;;;;;;;4.60;0.80;;;19.70;46.00;;;;;;5033638;28;20059;-82
2022/01/28 09:06:44;;;;;;;6.07;1.02;;;19.80;46.30;;;;;;5023419;28;20048;-82
2022/01/28 09:09:09;;;;;;;3.58;0.88;;;19.70;46.00;;;;;;5032461;28;20412;-83
2022/01/28 09:11:54;;;;;;;6.25;1.00;;;19.80;46.10;;;;;;5024486;28;20045;-82
2022/01/28 09:14:21;;;;;;;4.97;0.88;;;19.80;46.10;;;;;;5031551;28;20076;-83
2022/01/28 09:16:47;;;;;;;4.82;0.80;;;19.70;46.00;;;;;;5050378;28;20099;-82
2022/01/28 09:19:12;;;;;;;5.15;0.80;;;19.80;46.10;;;;;;5033348;28;20057;-82
2022/01/28 09:21:38;;;;;;;3.15;0.77;;;21.10;46.90;;;;;;5035549;28;20094;-83
2022/01/28 09:24:04;;;;;;;5.53;0.90;;;19.80;46.20;;;;;;5041114;28;20049;-83
2022/01/28 09:26:29;;;;;;;6.70;1.02;;;19.80;46.10;;;;;;5049489;28;20570;-83
2022/01/28 09:28:55;;;;;;;5.78;1.10;;;19.80;46.10;;;;;;5048992;28;20041;-83
2022/01/28 09:31:21;;;;;;;4.10;0.90;;;19.80;46.10;;;;;;5049750;28;20563;-84
2022/01/28 09:33:47;;;;;;;5.38;0.90;;;19.80;46.10;;;;;;5049599;28;20124;-84
2022/01/28 09:36:12;;;;;;;4.57;0.80;;;19.70;46.10;;;;;;5034379;28;20499;-83
2022/01/28 09:38:38;;;;;;;4.50;0.63;;;19.80;46.10;;;;;;5042630;28;20140;-83
2022/01/28 09:41:05;;;;;;;4.15;0.85;;;19.80;46.10;;;;;;5021731;28;20068;-83
2022/01/28 09:43:31;;;;;;;2.63;0.80;;;19.80;46.20;;;;;;5011578;28;20060;-83
2022/01/28 09:45:56;;;;;;;3.30;0.55;;;19.80;46.20;;;;;;5030984;28;20489;-81
2022/01/28 09:48:23;;;;;;;3.33;0.82;;;19.80;46.20;;;;;;5024171;28;20034;-82
2022/01/28 09:50:48;;;;;;;2.50;0.60;;;19.90;46.20;;;;;;5025071;28;20048;-83
2022/01/28 09:53:14;;;;;;;3.88;0.50;;;19.90;46.20;;;;;;5030464;28;20049;-82
2022/01/28 09:55:40;;;;;;;3.65;0.52;;;20.00;46.30;;;;;;5044579;28;20448;-81
2022/01/28 09:58:05;;;;;;;2.22;0.50;;;20.00;46.20;;;;;;5045827;28;20049;-81
2022/01/28 10:00:33;;;;;;;2.10;0.52;;;20.00;46.10;;;;;;5012632;28;20045;-83
2022/01/28 10:03:08;;;;;;;4.05;0.75;;;20.10;46.10;;;;;;5011782;28;20045;-79
2022/01/28 10:05:39;;;;;;;6.47;0.95;;;20.10;46.00;;;;;;5010619;28;20090;-77
2022/01/28 10:08:22;;;;;;;4.65;0.85;;;20.20;45.80;;;;;;5007237;28;20066;-81
2022/01/28 10:10:49;;;;;;;3.88;1.00;;;20.20;45.60;;;;;;5000158;28;20048;-81
2022/01/28 10:16:19;;;;;;;5.20;0.57;;;20.20;45.70;;;;;;5059679;28;20053;-81
2022/01/28 10:18:58;;;;;;;2.85;0.80;;;20.20;45.70;;;;;;5011738;28;20456;-81
2022/01/28 10:21:30;;;;;;;12.20;1.38;;;20.20;45.70;;;;;;5012229;28;20128;-81
2022/01/28 10:24:14;;;;;;;5.90;1.20;;;20.30;45.80;;;;;;5029770;28;20047;-80
2022/01/28 10:26:55;;;;;;;93.82;29.98;;;20.30;45.70;;;;;;5011808;28;20048;-83
2022/01/28 10:29:25;;;;;;;257.25;91.25;;;20.30;45.60;;;;;;5024962;28;20099;-80
2022/01/28 10:32:04;;;;;;;394.83;137.20;;;20.30;45.60;;;;;;5011293;28;20045;-81
2022/01/28 10:34:45;;;;;;;411.98;146.63;;;20.30;45.60;;;;;;5008946;28;20045;-82
2022/01/28 10:37:18;;;;;;;397.13;138.20;;;20.30;45.70;;;;;;5000268;28;20041;-78
2022/01/28 10:40:01;;;;;;;390.83;135.90;;;20.30;45.60;;;;;;5009643;28;20081;-78
2022/01/28 10:42:49;;;;;;;371.83;132.43;;;20.30;45.60;;;;;;5011142;28;20175;-80
2022/01/28 10:45:17;;;;;;;345.17;123.50;;;20.30;45.60;;;;;;5001978;28;20041;-80
2022/01/28 10:47:44;;;;;;;361.30;127.10;;;20.40;45.60;;;;;;5006882;28;20397;-79
2022/01/28 10:50:28;;;;;;;329.55;118.30;;;20.40;45.70;;;;;;5013163;28;20052;-79
2022/01/28 10:53:17;;;;;;;297.00;113.65;;;20.40;45.60;;;;;;5003388;28;20073;-79
2022/01/28 10:55:53;;;;;;;293.85;107.45;;;20.40;45.60;;;;;;5005200;28;20049;-79
2022/01/28 10:58:24;;;;;;;279.80;103.20;;;20.40;45.60;;;;;;4988697;28;20519;-79
2022/01/28 11:00:57;;;;;;;288.23;99.78;;;20.40;45.60;;;;;;4983942;28;20042;-79
2022/01/28 11:03:26;;;;;;;267.33;98.57;;;20.40;45.60;;;;;;5015807;28;20575;-80
2022/01/28 11:05:56;;;;;;;262.98;98.25;;;20.40;45.60;;;;;;5006794;28;20037;-79
2022/01/28 11:08:22;;;;;;;255.52;97.05;;;20.40;45.70;;;;;;5011608;28;20077;-79
2022/01/28 11:10:47;;;;;;;248.73;91.20;;;20.40;45.60;;;;;;4994991;28;20077;-79
2022/01/28 11:13:13;;;;;;;235.10;89.65;;;20.40;45.60;;;;;;5009900;28;20485;-79
2022/01/28 11:15:39;;;;;;;231.68;87.40;;;20.40;45.60;;;;;;5009382;28;20404;-80
2022/01/28 11:18:05;;;;;;;237.63;86.28;;;20.40;45.70;;;;;;5027429;28;20061;-79
2022/01/28 11:20:35;;;;;;;230.25;85.25;;;20.40;45.60;;;;;;4980046;28;20112;-80
2022/01/28 11:23:32;;;;;;;214.75;79.50;;;20.40;45.60;;;;;;5013954;28;20143;-79
2022/01/28 11:26:20;;;;;;;214.05;78.93;;;20.40;45.60;;;;;;4979797;28;20042;-79
2022/01/28 11:28:48;;;;;;;206.27;79.22;;;20.50;45.60;;;;;;4984506;28;20084;-79
2022/01/28 11:31:14;;;;;;;210.57;77.57;;;20.50;45.60;;;;;;5011860;28;20061;-79
2022/01/28 11:33:48;;;;;;;200.63;74.25;;;20.40;45.50;;;;;;5011345;28;20053;-79
2022/01/28 11:36:14;;;;;;;194.98;74.65;;;20.50;45.50;;;;;;5027738;28;20049;-79
2022/01/28 11:38:44;;;;;;;185.45;73.57;;;20.40;45.50;;;;;;5027060;28;20057;-79
2022/01/28 11:41:14;;;;;;;186.07;69.53;;;20.40;45.50;;;;;;5003550;28;20060;-80
2022/01/28 11:43:45;;;;;;;177.90;69.20;;;20.50;45.50;;;;;;4991412;28;20049;-80
2022/01/28 11:46:27;;;;;;;177.00;66.90;;;20.40;45.40;;;;;;5009892;28;20099;-80
2022/01/28 11:48:53;;;;;;;180.55;67.95;;;20.40;45.40;;;;;;4993920;28;20065;-80
2022/01/28 11:51:20;;;;;;;175.23;66.15;;;20.40;45.40;;;;;;4996600;28;20148;-80
2022/01/28 11:53:56;;;;;;;165.88;65.22;;;20.40;45.40;;;;;;5010411;28;20049;-80
2022/01/28 11:56:24;;;;;;;171.60;64.38;;;20.40;45.30;;;;;;5007693;28;20057;-80
2022/01/28 11:59:03;;;;;;;155.52;60.53;;;20.40;45.30;;;;;;5010481;28;20330;-80
2022/01/28 12:01:37;;;;;;;158.07;63.47;;;20.40;45.30;;;;;;5009947;28;20053;-79
2022/01/28 12:04:29;;;;;;;157.60;61.72;;;20.40;45.30;;;;;;5039335;28;20477;-79
2022/01/28 12:06:58;;;;;;;150.30;59.50;;;20.40;45.40;;;;;;5007049;28;20486;-80
2022/01/28 12:09:25;;;;;;;153.00;58.88;;;20.40;45.20;;;;;;5010889;28;20049;-79
2022/01/28 12:11:51;;;;;;;148.35;56.55;;;20.40;45.30;;;;;;5010877;28;20273;-80
2022/01/28 12:14:17;;;;;;;141.98;54.75;;;20.40;45.20;;;;;;4994639;28;20407;-79
2022/01/28 12:16:46;;;;;;;144.45;55.17;;;20.40;45.30;;;;;;5027681;28;20053;-80
2022/01/28 12:19:22;;;;;;;147.90;53.90;;;20.40;45.30;;;;;;5009844;28;20080;-80
2022/01/28 12:22:08;;;;;;;135.15;51.63;;;20.40;45.30;;;;;;5013132;28;20175;-79
2022/01/28 12:24:34;;;;;;;126.03;49.80;;;20.40;45.20;;;;;;5010096;28;20052;-80
2022/01/28 12:27:05;;;;;;;123.97;51.90;;;20.30;45.20;;;;;;5011150;28;20468;-80
2022/01/28 12:29:41;;;;;;;119.90;49.63;;;20.30;45.20;;;;;;5007270;28;20053;-79
2022/01/28 12:32:07;;;;;;;123.57;48.95;;;20.40;45.30;;;;;;5008515;28;20091;-79
2022/01/28 12:34:33;;;;;;;119.22;48.53;;;20.40;45.30;;;;;;5016155;28;20048;-80
2022/01/28 12:36:58;;;;;;;111.65;46.10;;;20.30;45.20;;;;;;5009936;28;20445;-80
2022/01/28 12:39:51;;;;;;;116.43;46.08;;;20.40;45.30;;;;;;5003234;28;20520;-80
2022/01/28 12:42:23;;;;;;;103.22;44.58;;;20.40;45.40;;;;;;5008898;28;20053;-80
2022/01/28 12:44:56;;;;;;;111.60;43.92;;;20.40;45.30;;;;;;5007527;28;20055;-80
2022/01/28 12:47:22;;;;;;;102.53;42.97;;;20.40;45.30;;;;;;5008763;28;20496;-80
2022/01/28 12:49:56;;;;;;;101.35;41.47;;;20.40;45.30;;;;;;5008741;28;20052;-79
2022/01/28 12:52:21;;;;;;;100.18;40.75;;;20.40;45.40;;;;;;5008906;28;20096;-80
2022/01/28 12:54:47;;;;;;;101.90;40.72;;;20.40;45.30;;;;;;5010664;28;20139;-79
2022/01/28 12:57:17;;;;;;;93.28;39.03;;;20.40;45.30;;;;;;5010004;28;20489;-80
2022/01/28 12:59:45;;;;;;;89.32;38.42;;;20.40;45.40;;;;;;5009820;28;20065;-81
2022/01/28 13:02:11;;;;;;;87.57;36.20;;;20.50;45.40;;;;;;5001964;28;20097;-78
2022/01/28 13:10:23;;;;;;;81.30;35.53;;;20.50;45.40;;;;;;5040349;28;20060;-79
2022/01/28 13:12:49;;;;;;;78.68;32.75;;;20.50;45.50;;;;;;5010110;28;20073;-79
2022/01/28 13:15:14;;;;;;;79.07;33.58;;;20.50;45.50;;;;;;5009655;28;20080;-79
2022/01/28 13:17:41;;;;;;;69.03;31.95;;;20.50;45.40;;;;;;5010236;28;20103;-78
2022/01/28 13:20:10;;;;;;;51.95;21.25;;;20.60;45.50;;;;;;4997027;28;20092;-78
2022/01/28 13:22:36;;;;;;;66.88;26.80;;;20.60;45.30;;;;;;5013047;28;20084;-78
2022/01/28 13:25:19;;;;;;;64.55;29.58;;;20.50;45.30;;;;;;4997381;28;20495;-78
2022/01/28 13:27:47;;;;;;;61.03;26.75;;;20.50;45.30;;;;;;4998399;28;20053;-78
2022/01/28 13:30:16;;;;;;;61.97;26.33;;;20.50;45.40;;;;;;5013668;28;20041;-78
2022/01/28 13:32:45;;;;;;;59.55;24.65;;;20.40;45.40;;;;;;5013413;28;20076;-78
2022/01/28 13:35:18;;;;;;;58.20;24.85;;;20.40;45.50;;;;;;5012713;28;20073;-78
2022/01/28 13:37:48;;;;;;;60.17;24.95;;;20.40;45.80;;;;;;5013202;28;20057;-78
2022/01/28 13:40:24;;;;;;;55.78;24.25;;;20.40;45.60;;;;;;5013075;28;20056;-78
2022/01/28 13:43:12;;;;;;;54.40;23.20;;;20.30;45.60;;;;;;5012604;28;20089;-78
2022/01/28 13:45:43;;;;;;;55.13;23.58;;;20.30;45.60;;;;;;5012329;28;20692;-77
2022/01/28 13:48:13;;;;;;;50.92;22.48;;;20.30;45.60;;;;;;5012655;28;20045;-78
2022/01/28 13:50:42;;;;;;;52.30;22.90;;;20.20;45.60;;;;;;5012693;28;20045;-78
2022/01/28 13:56:02;;;;;;;50.60;21.65;;;20.50;45.90;;;;;;4991831;28;20049;-78
2022/01/28 13:58:28;;;;;;;45.92;20.27;;;20.20;45.70;;;;;;4989596;28;20111;-80
2022/01/28 14:00:53;;;;;;;45.47;20.10;;;20.10;45.70;;;;;;4975762;28;20046;-80
2022/01/28 14:03:20;;;;;;;46.85;19.58;;;20.10;45.70;;;;;;4992892;28;20044;-80
2022/01/28 14:05:50;;;;;;;45.08;20.13;;;20.10;45.70;;;;;;4993343;28;20128;-80